Time;durP1;ratioP1;P1;durP2;ratioP2;P2;SDS_P1;SDS_P2;PMS_P1;PMS_P2;Temp;Humidity;BMP_temperature;BMP_pressure;BME280_temperature;BME280_humidity;BME280_pressure;Samples;Min_cycle;Max_cycle;Signal;HPM_P1;HPM_P2
2022/07/04 00:02:44;;;;;;;1.90;1.20;;;;;;;16.07;77.87;97791.13;6194734;28;20282;-47
2022/07/04 00:05:47;;;;;;;1.27;1.17;;;;;;;16.01;77.74;97786.44;6230324;28;20239;-49
2022/07/04 00:08:49;;;;;;;1.63;1.40;;;;;;;15.92;78.02;97797.19;6230156;28;20293;-47
2022/07/04 00:11:51;;;;;;;2.33;1.40;;;;;;;15.80;78.45;97788.59;6229902;28;20607;-48
2022/07/04 00:14:54;;;;;;;1.60;1.50;;;;;;;15.69;79.11;97781.66;6230224;28;20373;-49
2022/07/04 00:17:56;;;;;;;3.17;1.60;;;;;;;15.68;79.29;97779.16;6230404;28;20231;-47
2022/07/04 00:20:58;;;;;;;1.40;1.30;;;;;;;15.65;79.00;97776.81;6228948;28;20232;-46
2022/07/04 00:24:01;;;;;;;1.43;1.33;;;;;;;15.70;79.27;97783.34;6230573;28;20254;-47
2022/07/04 00:27:04;;;;;;;1.50;1.40;;;;;;;15.75;78.69;97778.41;6229780;28;20224;-47
2022/07/04 00:30:06;;;;;;;2.53;1.50;;;;;;;15.79;78.70;97778.94;6206236;28;20243;-48
2022/07/04 00:33:13;;;;;;;1.93;1.40;;;;;;;15.78;78.49;97777.25;6207063;28;20257;-47
2022/07/04 00:36:15;;;;;;;1.30;1.20;;;;;;;15.74;78.59;97775.91;6229894;28;20297;-48
2022/07/04 00:39:17;;;;;;;1.13;1.10;;;;;;;15.66;78.66;97771.34;6229333;28;20243;-48
2022/07/04 00:42:20;;;;;;;1.70;1.30;;;;;;;15.61;79.16;97772.78;6228662;28;20289;-49
2022/07/04 00:45:22;;;;;;;1.40;1.30;;;;;;;15.52;79.85;97764.69;6228483;28;20238;-50
2022/07/04 00:48:24;;;;;;;1.57;1.47;;;;;;;15.57;79.38;97774.09;6229490;28;20238;-50
2022/07/04 00:51:27;;;;;;;1.83;1.50;;;;;;;15.54;79.71;97766.38;6227960;28;20231;-50
2022/07/04 00:54:31;;;;;;;1.97;1.40;;;;;;;15.53;79.77;97768.19;6229964;28;20277;-49
2022/07/04 00:57:34;;;;;;;1.80;1.70;;;;;;;15.55;79.70;97770.75;6228658;28;20303;-49
2022/07/04 01:05:10;;;;;;;1.50;1.40;;;;;;;15.57;79.68;97760.78;6229927;28;20228;-46
2022/07/04 01:08:13;;;;;;;4.30;1.80;;;;;;;15.60;79.46;97766.63;6228875;28;20607;-48
2022/07/04 01:11:16;;;;;;;1.30;1.20;;;;;;;15.64;79.34;97768.00;6228295;28;20311;-46
2022/07/04 01:14:18;;;;;;;1.47;1.30;;;;;;;15.66;79.09;97770.53;6229416;28;20580;-46
2022/07/04 01:17:20;;;;;;;1.40;1.30;;;;;;;15.62;78.96;97759.34;6228995;28;20235;-47
2022/07/04 01:20:23;;;;;;;3.10;1.40;;;;;;;15.50;79.33;97758.69;6228402;28;20309;-46
2022/07/04 01:23:26;;;;;;;1.70;1.60;;;;;;;15.44;79.09;97754.00;6228727;28;20589;-46
2022/07/04 01:26:28;;;;;;;1.60;1.50;;;;;;;15.38;79.79;97759.06;6229866;28;20314;-46
2022/07/04 01:29:32;;;;;;;2.10;1.17;;;;;;;15.34;79.75;97758.53;6228694;28;20726;-46
2022/07/04 01:32:34;;;;;;;2.00;1.70;;;;;;;15.29;80.32;97758.13;6228988;28;20705;-49
2022/07/04 01:35:36;;;;;;;1.60;1.40;;;;;;;15.24;80.50;97752.47;6230128;28;20223;-46
2022/07/04 01:38:38;;;;;;;1.73;1.60;;;;;;;15.21;80.82;97750.09;6233643;28;20251;-46
2022/07/04 01:41:40;;;;;;;2.00;1.50;;;;;;;15.14;80.81;97744.53;6233145;28;20833;-46
2022/07/04 01:44:42;;;;;;;1.60;1.43;;;;;;;15.09;81.26;97741.47;6233725;28;20313;-47
2022/07/04 01:47:45;;;;;;;1.70;1.50;;;;;;;15.10;81.13;97743.16;6233475;28;20227;-48
2022/07/04 01:50:47;;;;;;;1.60;1.50;;;;;;;15.13;81.16;97750.00;6233167;28;20242;-47
2022/07/04 01:53:49;;;;;;;2.17;1.40;;;;;;;15.16;81.15;97740.91;6234287;28;20235;-46
2022/07/04 01:56:51;;;;;;;2.43;1.60;;;;;;;15.18;81.31;97737.09;6233644;28;20285;-48
2022/07/04 02:03:14;;;;;;;1.60;1.50;;;;;;;15.21;81.01;97735.97;6231843;28;20228;-47
2022/07/04 02:06:16;;;;;;;1.43;1.33;;;;;;;15.12;81.21;97751.81;6216223;28;20203;-47
2022/07/04 02:09:19;;;;;;;1.50;1.37;;;;;;;15.03;81.17;97755.38;6232674;28;20382;-46
2022/07/04 02:15:42;;;;;;;1.73;1.40;;;;;;;14.98;82.43;97743.50;6232983;28;20231;-46
2022/07/04 02:18:44;;;;;;;1.60;1.50;;;;;;;15.01;82.24;97744.06;6232640;28;20228;-46
2022/07/04 02:21:46;;;;;;;1.57;1.47;;;;;;;15.06;82.18;97730.34;6232192;28;20711;-46
2022/07/04 02:24:48;;;;;;;1.40;1.30;;;;;;;15.10;82.14;97737.00;6233159;28;20263;-46
2022/07/04 02:27:51;;;;;;;1.50;1.40;;;;;;;15.12;81.83;97735.88;6232328;28;20300;-48
2022/07/04 02:30:53;;;;;;;2.80;1.50;;;;;;;15.16;81.75;97732.94;6232094;28;20738;-47
2022/07/04 02:33:55;;;;;;;1.80;1.70;;;;;;;15.17;81.76;97726.63;6232485;28;20713;-46
2022/07/04 02:36:58;;;;;;;1.63;1.53;;;;;;;15.20;81.60;97721.81;6230836;28;20239;-50
2022/07/04 02:40:00;;;;;;;1.50;1.40;;;;;;;15.24;81.52;97733.00;6231435;28;20235;-45
2022/07/04 02:43:02;;;;;;;1.50;1.40;;;;;;;15.28;81.46;97737.00;6232102;28;20711;-47
2022/07/04 02:46:04;;;;;;;1.77;1.67;;;;;;;15.24;81.38;97741.81;6231604;28;20240;-48
2022/07/04 02:49:06;;;;;;;1.40;1.30;;;;;;;15.19;81.63;97738.75;6230488;28;20231;-49
2022/07/04 02:52:08;;;;;;;1.53;1.43;;;;;;;15.12;81.39;97727.91;6231627;28;20654;-46
2022/07/04 02:55:10;;;;;;;1.87;1.70;;;;;;;15.14;81.81;97733.91;6232075;28;20762;-46
2022/07/04 02:58:12;;;;;;;1.73;1.63;;;;;;;15.14;81.73;97735.72;6231678;28;20231;-47
2022/07/04 03:01:14;;;;;;;1.60;1.50;;;;;;;15.06;81.84;97733.84;6231504;28;20591;-50
2022/07/04 03:04:17;;;;;;;2.03;1.60;;;;;;;15.08;81.88;97734.50;6231999;28;20734;-51
2022/07/04 03:07:19;;;;;;;1.93;1.57;;;;;;;15.07;82.01;97735.47;6231099;28;20334;-46
2022/07/04 03:10:21;;;;;;;1.60;1.50;;;;;;;15.05;81.82;97736.63;6231459;28;20788;-45
2022/07/04 03:13:24;;;;;;;1.60;1.50;;;;;;;15.06;81.61;97735.66;6231145;28;20235;-48
2022/07/04 03:16:26;;;;;;;1.77;1.27;;;;;;;15.04;81.78;97749.09;6231480;28;20228;-48
2022/07/04 03:19:28;;;;;;;2.93;1.80;;;;;;;15.05;82.02;97748.09;6232074;28;20467;-47
2022/07/04 03:22:31;;;;;;;1.70;1.60;;;;;;;15.05;82.04;97750.75;6232333;28;20251;-50
2022/07/04 03:25:33;;;;;;;1.87;1.77;;;;;;;15.02;82.14;97758.19;6231153;28;20707;-48
2022/07/04 03:28:35;;;;;;;1.70;1.60;;;;;;;15.02;82.46;97756.38;6231487;28;20330;-47
2022/07/04 03:31:37;;;;;;;3.00;1.60;;;;;;;15.08;82.40;97754.91;6230494;28;20231;-45
2022/07/04 03:34:39;;;;;;;1.50;1.40;;;;;;;15.12;82.14;97753.66;6232017;28;20282;-48
2022/07/04 03:37:41;;;;;;;1.80;1.70;;;;;;;15.14;82.18;97749.88;6230823;28;20236;-49
2022/07/04 03:40:43;;;;;;;1.93;1.77;;;;;;;15.18;81.79;97758.34;6230123;28;20270;-45
2022/07/04 03:43:45;;;;;;;1.80;1.70;;;;;;;15.22;81.82;97761.56;6230559;28;20606;-48
2022/07/04 03:46:47;;;;;;;1.50;1.40;;;;;;;15.27;81.90;97760.09;6230930;28;20239;-47
2022/07/04 03:49:49;;;;;;;2.10;1.90;;;;;;;15.26;81.68;97763.78;6229510;28;20227;-46
2022/07/04 03:52:51;;;;;;;1.43;1.30;;;;;;;15.23;81.76;97763.25;6230601;28;20239;-47
2022/07/04 03:55:53;;;;;;;2.17;1.23;;;;;;;15.23;82.22;97764.06;6231396;28;20262;-48
2022/07/04 03:58:55;;;;;;;1.87;1.77;;;;;;;15.26;82.14;97771.75;6230161;28;20315;-47
2022/07/04 04:01:57;;;;;;;2.83;1.67;;;;;;;15.21;82.48;97776.69;6212341;28;20227;-49
2022/07/04 04:08:20;;;;;;;1.80;1.70;;;;;;;15.29;82.61;97795.38;6228907;28;20228;-48
2022/07/04 04:11:22;;;;;;;2.93;2.20;;;;;;;15.43;82.47;97799.34;6229178;28;20242;-47
2022/07/04 04:14:25;;;;;;;1.70;1.60;;;;;;;15.52;82.46;97801.09;6230102;28;20255;-47
2022/07/04 04:17:28;;;;;;;2.60;1.90;;;;;;;15.62;82.23;97796.56;6229379;28;20330;-47
2022/07/04 04:20:30;;;;;;;2.13;1.70;;;;;;;15.69;82.00;97799.47;6229087;28;20256;-49
2022/07/04 04:23:32;;;;;;;1.70;1.60;;;;;;;15.71;81.96;97798.31;6229368;28;20243;-48
2022/07/04 04:26:34;;;;;;;3.70;1.60;;;;;;;15.79;81.47;97798.41;6212701;28;20234;-46
2022/07/04 04:29:36;;;;;;;1.77;1.50;;;;;;;15.96;81.33;97799.38;6211631;28;20301;-48
2022/07/04 04:32:38;;;;;;;1.90;1.80;;;;;;;16.17;80.78;97799.06;6230086;28;20693;-49
2022/07/04 04:35:40;;;;;;;2.23;2.03;;;;;;;16.38;79.99;97796.84;6230211;28;20235;-49
2022/07/04 04:38:42;;;;;;;2.93;1.70;;;;;;;16.53;79.67;97797.97;6229302;28;20310;-47
2022/07/04 04:41:44;;;;;;;1.60;1.50;;;;;;;16.70;79.19;97800.75;6228710;28;20360;-47
2022/07/04 04:44:47;;;;;;;1.83;1.73;;;;;;;16.83;78.77;97804.66;6211572;28;20235;-48
2022/07/04 04:47:49;;;;;;;1.63;1.53;;;;;;;17.08;78.10;97812.75;6228727;28;20794;-52
2022/07/04 04:50:51;;;;;;;2.03;1.77;;;;;;;17.36;77.08;97802.69;6227954;28;20259;-51
2022/07/04 04:53:53;;;;;;;1.73;1.50;;;;;;;17.55;76.81;97803.25;6229859;28;20243;-52
2022/07/04 04:56:55;;;;;;;1.97;1.87;;;;;;;17.72;76.28;97797.94;6229162;28;20290;-49
2022/07/04 04:59:57;;;;;;;2.87;1.70;;;;;;;17.89;76.18;97807.63;6228948;28;20398;-49
2022/07/04 05:02:59;;;;;;;1.93;1.77;;;;;;;18.07;75.60;97805.63;6227971;28;20318;-48
2022/07/04 05:06:01;;;;;;;1.50;1.40;;;;;;;18.22;75.44;97813.81;6228894;28;20231;-45
2022/07/04 05:09:03;;;;;;;1.70;1.60;;;;;;;18.40;74.97;97817.97;6228431;28;20579;-46
2022/07/04 05:12:05;;;;;;;1.80;1.70;;;;;;;18.55;74.31;97818.16;6227543;28;20211;-45
2022/07/04 05:15:08;;;;;;;1.60;1.50;;;;;;;18.69;74.26;97819.28;6228817;28;20300;-45
2022/07/04 05:18:10;;;;;;;1.63;1.53;;;;;;;18.89;73.80;97819.75;6228474;28;20727;-46
2022/07/04 05:21:12;;;;;;;1.63;1.50;;;;;;;19.03;73.32;97817.22;6227611;28;20219;-46
2022/07/04 05:24:14;;;;;;;1.57;1.47;;;;;;;19.13;73.04;97806.28;6229133;28;20302;-45
2022/07/04 05:27:16;;;;;;;1.50;1.40;;;;;;;19.17;73.13;97821.81;6228979;28;20786;-46
2022/07/04 05:30:19;;;;;;;1.53;1.43;;;;;;;19.20;73.29;97820.63;6228060;28;20285;-46
2022/07/04 05:33:20;;;;;;;1.80;1.70;;;;;;;19.25;73.49;97825.47;6228178;28;20292;-47
2022/07/04 05:36:23;;;;;;;1.53;1.43;;;;;;;19.30;73.38;97821.25;6229700;28;20317;-47
2022/07/04 05:39:30;;;;;;;1.30;1.20;;;;;;;19.35;73.46;97818.06;6228919;28;20240;-46
2022/07/04 05:42:34;;;;;;;1.60;1.50;;;;;;;19.33;73.28;97818.25;6228010;28;20699;-46
2022/07/04 05:45:36;;;;;;;1.67;1.57;;;;;;;19.28;73.29;97820.59;6229625;28;20257;-47
2022/07/04 05:48:38;;;;;;;1.60;1.50;;;;;;;19.34;73.31;97819.09;6227547;28;20254;-48
2022/07/04 05:51:40;;;;;;;2.00;1.43;;;;;;;19.58;72.82;97813.63;6228594;28;20932;-47
2022/07/04 05:54:42;;;;;;;1.53;1.43;;;;;;;19.93;72.24;97820.25;6228980;28;20243;-46
2022/07/04 05:57:45;;;;;;;1.70;1.50;;;;;;;20.28;71.09;97813.44;6227655;28;20469;-50
2022/07/04 06:00:47;;;;;;;2.63;1.43;;;;;;;20.58;70.30;97817.03;6228037;28;20299;-45
2022/07/04 06:03:49;;;;;;;1.50;1.40;;;;;;;20.88;69.72;97824.09;6226998;28;20322;-47
2022/07/04 06:06:52;;;;;;;1.50;1.40;;;;;;;21.22;69.22;97828.94;6227994;28;20243;-47
2022/07/04 06:09:54;;;;;;;1.23;1.20;;;;;;;21.38;68.77;97827.91;6227477;28;20371;-49
2022/07/04 06:12:56;;;;;;;1.50;1.40;;;;;;;21.44;68.82;97832.53;6227344;28;20235;-49
2022/07/04 06:15:58;;;;;;;1.73;1.60;;;;;;;21.35;68.90;97839.03;6227524;28;20619;-46
2022/07/04 06:19:00;;;;;;;1.67;1.57;;;;;;;21.31;69.48;97846.63;6227720;28;20322;-49
2022/07/04 06:22:03;;;;;;;1.70;1.60;;;;;;;21.32;69.44;97842.91;6228757;28;20262;-49
2022/07/04 06:25:05;;;;;;;1.57;1.47;;;;;;;21.28;69.52;97855.03;6233592;28;20232;-48
2022/07/04 06:28:07;;;;;;;2.97;1.60;;;;;;;21.25;69.62;97850.06;6231601;28;20223;-46
2022/07/04 06:31:29;;;;;;;2.20;1.97;;;;;;;21.30;69.41;97869.13;6232478;28;20243;-49
2022/07/04 06:37:52;;;;;;;2.43;2.23;;;;;;;21.33;69.79;97884.03;6230784;28;20327;-46
2022/07/04 06:40:57;;;;;;;2.30;2.10;;;;;;;21.55;70.33;97893.00;6231268;28;20238;-46
2022/07/04 06:43:59;;;;;;;1.80;1.70;;;;;;;22.08;69.00;97898.00;6232237;28;20327;-46
2022/07/04 06:47:01;;;;;;;2.00;1.90;;;;;;;22.59;67.54;97895.19;6231363;28;20635;-46
2022/07/04 06:50:03;;;;;;;2.33;1.73;;;;;;;22.67;63.89;97900.41;6230887;28;20227;-46
2022/07/04 06:53:25;;;;;;;2.17;1.50;;;;;;;23.27;60.67;97912.47;6230623;28;20243;-46
2022/07/04 06:56:27;;;;;;;2.30;1.30;;;;;;;23.60;59.42;97909.19;6231309;28;20231;-46
2022/07/04 06:59:30;;;;;;;1.40;1.30;;;;;;;23.81;58.59;97911.78;6231362;28;20227;-46
2022/07/04 07:02:34;;;;;;;2.17;1.47;;;;;;;24.21;57.59;97908.19;6231688;28;20232;-47
2022/07/04 07:05:36;;;;;;;1.63;1.33;;;;;;;24.92;55.42;97910.38;6232151;28;20227;-50
2022/07/04 07:08:59;;;;;;;2.37;1.60;;;;;;;25.50;52.37;97916.72;6231169;28;20373;-50
2022/07/04 07:12:02;;;;;;;4.13;1.87;;;;;;;25.73;49.63;97929.81;6230623;28;20220;-46
2022/07/04 07:15:04;;;;;;;3.47;1.60;;;;;;;25.67;50.85;97911.72;6232867;28;20625;-49
2022/07/04 07:18:06;;;;;;;1.75;1.60;;;;;;;26.19;50.29;97913.34;6214755;28;20223;-49
2022/07/04 07:21:09;;;;;;;2.17;1.63;;;;;;;26.36;49.78;97919.13;6229887;28;20254;-47
2022/07/04 07:24:11;;;;;;;2.20;1.60;;;;;;;26.51;49.48;97914.25;6231089;28;20219;-48
2022/07/04 07:27:13;;;;;;;1.73;1.63;;;;;;;26.77;49.01;97922.16;6231322;28;20231;-49
2022/07/04 07:30:15;;;;;;;2.13;1.45;;;;;;;26.67;47.92;97931.81;6229963;28;20306;-50
2022/07/04 07:33:17;;;;;;;2.45;1.33;;;;;;;26.62;48.01;97945.19;6229729;28;20239;-49
2022/07/04 07:36:19;;;;;;;3.17;1.30;;;;;;;26.41;47.78;97928.25;6230010;28;20212;-48
2022/07/04 07:39:21;;;;;;;2.90;1.38;;;;;;;25.85;48.06;97924.56;6230718;28;20235;-46
2022/07/04 07:42:25;;;;;;;1.20;1.10;;;;;;;25.44;48.14;97922.16;6229991;28;20366;-47
2022/07/04 07:45:27;;;;;;;4.07;1.13;;;;;;;25.35;49.22;97908.84;6230452;28;20710;-47
2022/07/04 07:48:29;;;;;;;1.55;1.02;;;;;;;25.40;48.26;97899.28;6229472;28;20738;-50
2022/07/04 07:51:31;;;;;;;1.17;1.00;;;;;;;25.81;47.37;97899.81;6229853;28;20765;-48
2022/07/04 07:54:34;;;;;;;1.10;1.00;;;;;;;25.98;46.63;97892.88;6230278;28;20320;-50
2022/07/04 07:57:58;;;;;;;1.75;1.45;;;;;;;25.67;46.90;97887.38;6229944;28;20701;-47
2022/07/04 08:01:04;;;;;;;1.13;1.02;;;;;;;25.81;47.92;97883.59;6229562;28;20267;-47
2022/07/04 08:07:27;;;;;;;3.40;1.13;;;;;;;27.38;46.12;97878.06;6229321;28;20585;-48
2022/07/04 08:10:29;;;;;;;0.90;0.90;;;;;;;28.01;44.25;97868.78;6229562;28;20227;-51
2022/07/04 08:13:31;;;;;;;0.70;0.70;;;;;;;28.24;43.49;97858.88;6228975;28;20231;-49
2022/07/04 08:16:34;;;;;;;1.20;1.02;;;;;;;28.12;43.80;97871.56;6230119;28;20327;-50
2022/07/04 08:19:56;;;;;;;0.80;0.80;;;;;;;28.05;42.97;97861.84;6229963;28;20227;-51
2022/07/04 08:22:58;;;;;;;1.10;0.90;;;;;;;28.03;43.41;97864.78;6204344;28;20229;-51
2022/07/04 08:26:02;;;;;;;1.02;0.85;;;;;;;27.99;44.84;97869.00;6215215;28;20290;-51
2022/07/04 08:29:04;;;;;;;1.25;1.05;;;;;;;27.90;44.86;97878.53;6229887;28;20242;-49
2022/07/04 08:32:09;;;;;;;0.80;0.80;;;;;;;27.79;44.89;97887.44;6228854;28;20597;-48
2022/07/04 08:35:11;;;;;;;1.60;1.10;;;;;;;27.53;43.69;97885.84;6230611;28;20719;-49
2022/07/04 08:38:18;;;;;;;1.52;1.10;;;;;;;27.50;43.61;97897.13;6229050;28;20232;-47
2022/07/04 08:41:20;;;;;;;2.10;1.20;;;;;;;27.30;43.45;97905.47;6229338;28;20260;-50
2022/07/04 08:44:27;;;;;;;1.92;1.27;;;;;;;27.19;43.99;97907.03;6229915;28;20235;-51
2022/07/04 08:47:33;;;;;;;1.45;1.20;;;;;;;26.78;44.36;97913.00;6229530;28;20632;-48
2022/07/04 08:50:43;;;;;;;1.98;1.23;;;;;;;26.66;45.36;97917.44;6215497;28;20242;-49
2022/07/04 08:53:57;;;;;;;1.08;1.00;;;;;;;26.43;44.79;97909.09;6228875;28;20231;-51
2022/07/04 09:00:21;;;;;;;1.40;0.95;;;;;;;26.00;46.19;97896.19;6220458;28;20236;-52
2022/07/04 09:03:24;;;;;;;1.20;1.10;;;;;;;25.86;46.84;97904.56;6228649;28;20246;-49
2022/07/04 09:06:28;;;;;;;1.77;0.90;;;;;;;25.75;47.35;97900.69;6229113;28;20699;-49
2022/07/04 09:09:33;;;;;;;0.90;0.90;;;;;;;25.65;47.85;97911.13;6228516;28;20595;-49
2022/07/04 09:12:35;;;;;;;2.65;1.08;;;;;;;25.57;48.70;97916.69;6228815;28;20228;-47
2022/07/04 09:15:57;;;;;;;2.17;1.20;;;;;;;25.34;51.84;97912.63;6229337;28;20246;-51
2022/07/04 09:19:00;;;;;;;1.30;1.10;;;;;;;25.04;52.03;97919.53;6228782;28;20599;-51
2022/07/04 09:22:11;;;;;;;1.27;1.15;;;;;;;24.93;52.84;97906.66;6227621;28;20696;-49
2022/07/04 09:25:17;;;;;;;1.50;1.40;;;;;;;24.87;53.50;97902.84;6229553;28;20671;-49
2022/07/04 09:28:28;;;;;;;1.00;1.00;;;;;;;24.89;54.01;97886.47;6227928;28;20239;-48
2022/07/04 09:31:31;;;;;;;0.93;0.90;;;;;;;24.88;54.70;97885.63;6227649;28;20359;-52
2022/07/04 09:34:33;;;;;;;2.28;1.23;;;;;;;24.93;54.88;97877.78;6228451;28;20306;-48
2022/07/04 09:37:41;;;;;;;1.13;1.02;;;;;;;24.94;55.79;97862.41;6227884;28;20714;-49
2022/07/04 09:44:06;;;;;;;2.38;1.08;;;;;;;24.08;61.23;97853.34;6229561;28;20227;-50
2022/07/04 09:47:27;;;;;;;3.38;1.30;;;;;;;23.82;62.26;97856.81;6228600;28;20632;-50
2022/07/04 09:50:29;;;;;;;1.00;1.00;;;;;;;23.66;62.84;97851.81;6227990;28;20386;-53
2022/07/04 09:53:32;;;;;;;3.03;1.13;;;;;;;23.57;63.14;97842.22;6227732;28;20243;-51
2022/07/04 09:56:46;;;;;;;1.25;1.02;;;;;;;23.34;63.51;97839.81;6211067;28;20631;-54
2022/07/04 09:59:48;;;;;;;2.58;1.50;;;;;;;23.13;64.19;97833.50;6232860;28;20735;-51
2022/07/04 10:03:14;;;;;;;1.17;1.08;;;;;;;23.19;64.00;97842.63;6231723;28;20730;-54
2022/07/04 10:06:17;;;;;;;1.30;1.20;;;;;;;23.50;62.57;97844.88;6232280;28;20224;-50
2022/07/04 10:09:19;;;;;;;0.90;0.90;;;;;;;23.80;61.67;97848.94;6232274;28;20540;-52
2022/07/04 10:12:28;;;;;;;1.48;1.30;;;;;;;24.23;61.20;97841.41;6232175;28;20639;-52
2022/07/04 10:15:32;;;;;;;1.20;1.10;;;;;;;24.50;59.78;97849.50;6232028;28;20231;-48
2022/07/04 10:18:35;;;;;;;1.10;1.10;;;;;;;24.50;60.05;97839.53;6232611;28;20240;-47
2022/07/04 10:21:37;;;;;;;1.30;1.20;;;;;;;24.75;59.32;97847.84;6232090;28;21747;-47
2022/07/04 10:24:39;;;;;;;1.23;1.13;;;;;;;25.29;57.68;97844.88;6232130;28;20240;-49
2022/07/04 10:27:42;;;;;;;1.50;1.27;;;;;;;25.81;55.23;97853.84;6232016;28;20624;-49
2022/07/04 10:30:51;;;;;;;1.08;1.00;;;;;;;26.18;54.22;97845.94;6231778;28;20235;-46
2022/07/04 10:33:57;;;;;;;1.40;0.98;;;;;;;26.54;53.71;97835.31;6214295;28;20330;-47
2022/07/04 10:36:59;;;;;;;1.05;1.02;;;;;;;27.05;52.21;97831.53;6231962;28;20596;-47
2022/07/04 10:40:02;;;;;;;1.63;1.10;;;;;;;28.19;49.57;97828.06;6231553;28;20295;-48
2022/07/04 10:43:42;;;;;;;3.45;1.13;;;;;;;29.23;48.50;97832.78;6231870;28;20238;-48
2022/07/04 10:46:53;;;;;;;1.40;1.30;;;;;;;30.38;41.73;97840.00;6232122;28;20315;-50
2022/07/04 10:49:55;;;;;;;1.20;1.00;;;;;;;31.00;39.06;97824.44;6231528;28;20227;-43
2022/07/04 10:53:09;;;;;;;1.92;1.27;;;;;;;30.35;39.89;97824.16;6231188;28;20683;-49
2022/07/04 10:56:20;;;;;;;1.23;1.10;;;;;;;30.78;40.43;97820.81;6195211;28;20233;-46
2022/07/04 10:59:25;;;;;;;1.30;1.20;;;;;;;31.80;38.25;97823.91;6206520;28;20243;-49
2022/07/04 11:02:29;;;;;;;1.20;1.10;;;;;;;32.54;36.23;97821.38;6219182;28;20635;-50
2022/07/04 11:05:32;;;;;;;1.42;1.20;;;;;;;32.85;34.81;97816.19;6225885;28;20236;-47
2022/07/04 11:09:13;;;;;;;1.48;1.25;;;;;;;32.30;34.71;97816.53;6230986;28;20297;-50
2022/07/04 11:12:15;;;;;;;1.58;1.48;;;;;;;32.30;35.28;97811.06;6222654;28;20679;-48
2022/07/04 11:15:18;;;;;;;1.30;1.20;;;;;;;32.33;35.55;97810.56;6231087;28;20236;-48
2022/07/04 11:18:22;;;;;;;1.50;1.40;;;;;;;32.55;36.08;97805.81;6231228;28;20635;-49
2022/07/04 11:21:25;;;;;;;1.77;1.60;;;;;;;32.48;36.99;97821.63;6231167;28;20227;-48
2022/07/04 11:24:28;;;;;;;3.17;1.27;;;;;;;32.90;37.80;97814.31;6230858;28;20727;-47
2022/07/04 11:27:30;;;;;;;1.30;1.20;;;;;;;33.08;37.12;97818.53;6230510;28;20228;-50
2022/07/04 11:30:32;;;;;;;2.47;1.20;;;;;;;32.73;36.50;97810.94;6214148;28;20730;-44
2022/07/04 11:33:36;;;;;;;1.90;1.48;;;;;;;32.83;36.61;97816.47;6230279;28;20254;-47
2022/07/04 11:36:41;;;;;;;2.45;1.70;;;;;;;32.88;37.64;97815.66;6229794;28;20235;-47
2022/07/04 11:39:43;;;;;;;1.60;1.50;;;;;;;32.86;37.46;97810.47;6229984;28;20725;-48
2022/07/04 11:46:25;;;;;;;1.95;1.73;;;;;;;32.63;35.43;97806.19;6230093;28;20323;-47
2022/07/04 11:49:28;;;;;;;1.67;1.55;;;;;;;32.82;35.41;97798.41;6230153;28;20231;-46
2022/07/04 11:52:38;;;;;;;1.50;1.40;;;;;;;33.49;36.24;97803.19;6230366;28;20455;-50
2022/07/04 11:56:01;;;;;;;1.50;1.40;;;;;;;34.18;33.80;97805.63;6229401;28;20261;-50
2022/07/04 11:59:15;;;;;;;1.30;1.20;;;;;;;34.00;33.35;97801.47;6229846;28;20235;-49
2022/07/04 12:02:17;;;;;;;2.63;1.42;;;;;;;34.38;32.31;97800.19;6211399;28;20240;-49
2022/07/04 12:05:19;;;;;;;2.42;1.63;;;;;;;34.92;31.75;97794.16;6230366;28;20338;-47
2022/07/04 12:08:21;;;;;;;1.52;1.40;;;;;;;35.23;30.58;97780.38;6230325;28;20228;-50
2022/07/04 12:11:59;;;;;;;2.20;1.50;;;;;;;34.63;29.98;97788.41;6229901;28;20323;-46
2022/07/04 12:15:07;;;;;;;1.40;1.30;;;;;;;34.90;30.99;97793.63;6229276;28;20274;-50
2022/07/04 12:18:17;;;;;;;1.38;1.27;;;;;;;35.12;30.26;97787.81;6229757;28;20302;-49
2022/07/04 12:21:22;;;;;;;1.33;1.23;;;;;;;35.66;28.70;97784.34;6211804;28;20295;-48
2022/07/04 12:24:27;;;;;;;3.20;1.30;;;;;;;35.95;29.33;97778.97;6229587;28;20223;-47
2022/07/04 12:27:29;;;;;;;2.03;1.50;;;;;;;35.92;29.60;97776.81;6230340;28;20232;-48
2022/07/04 12:30:34;;;;;;;1.98;1.52;;;;;;;35.90;29.28;97779.03;6230823;28;20536;-48
2022/07/04 12:33:36;;;;;;;1.75;1.30;;;;;;;36.59;29.00;97767.81;6229290;28;20220;-50
2022/07/04 12:36:51;;;;;;;1.65;1.50;;;;;;;36.04;29.50;97769.03;6228316;28;20691;-47
2022/07/04 12:39:53;;;;;;;2.70;1.20;;;;;;;36.32;29.92;97762.00;6228935;28;20220;-49
2022/07/04 12:42:56;;;;;;;1.30;1.20;;;;;;;35.19;30.29;97771.03;6204693;28;20228;-48
2022/07/04 12:45:58;;;;;;;3.92;1.20;;;;;;;34.66;30.99;97776.06;6226693;28;20279;-47
2022/07/04 12:49:02;;;;;;;4.40;1.80;;;;;;;34.37;31.64;97784.00;6228655;28;20330;-49
2022/07/04 12:52:10;;;;;;;4.47;1.77;;;;;;;33.51;33.50;97784.59;6228969;28;20608;-47
2022/07/04 12:55:14;;;;;;;1.52;1.42;;;;;;;33.80;33.07;97779.50;6228995;28;20813;-53
2022/07/04 12:58:16;;;;;;;1.88;1.27;;;;;;;34.90;31.37;97787.31;6228512;28;20232;-49
2022/07/04 13:01:18;;;;;;;1.42;1.33;;;;;;;35.71;31.03;97784.31;6229122;28;20325;-48
2022/07/04 13:04:20;;;;;;;1.60;1.20;;;;;;;36.36;30.53;97780.38;6229400;28;20695;-50
2022/07/04 13:07:23;;;;;;;1.20;1.10;;;;;;;36.82;30.44;97785.53;6228274;28;20246;-51
2022/07/04 13:10:24;;;;;;;1.77;1.10;;;;;;;36.37;29.92;97782.03;6228868;28;20366;-53
2022/07/04 13:13:27;;;;;;;1.42;1.00;;;;;;;35.67;30.59;97775.81;6228670;28;20231;-49
2022/07/04 13:16:29;;;;;;;1.58;1.20;;;;;;;35.33;30.41;97772.97;6227271;28;20242;-50
2022/07/04 13:19:31;;;;;;;1.63;1.48;;;;;;;34.55;29.55;97768.94;6226993;28;20243;-48
2022/07/04 13:22:33;;;;;;;1.30;1.20;;;;;;;34.11;31.73;97769.44;6228076;28;20246;-49
2022/07/04 13:25:35;;;;;;;3.25;1.52;;;;;;;34.11;33.77;97771.38;6211854;28;20231;-52
2022/07/04 13:28:37;;;;;;;1.40;1.30;;;;;;;33.81;34.22;97770.22;6227792;28;20219;-49
2022/07/04 13:31:40;;;;;;;2.22;1.27;;;;;;;33.94;33.89;97775.16;6226873;28;20710;-47
2022/07/04 13:34:42;;;;;;;1.00;1.00;;;;;;;34.06;34.25;97772.16;6227173;28;20235;-47
2022/07/04 13:37:44;;;;;;;1.38;1.23;;;;;;;34.02;34.23;97774.66;6227829;28;20429;-48
2022/07/04 13:40:46;;;;;;;1.30;1.23;;;;;;;34.23;32.16;97778.22;6228528;28;20231;-48
2022/07/04 13:43:48;;;;;;;1.30;1.20;;;;;;;34.20;32.43;97767.81;6227840;28;20250;-51
2022/07/04 13:46:51;;;;;;;1.35;1.33;;;;;;;34.51;31.81;97767.84;6227147;28;20231;-50
2022/07/04 13:49:53;;;;;;;1.17;1.08;;;;;;;34.59;32.77;97767.28;6227806;28;20254;-49
2022/07/04 13:52:55;;;;;;;1.20;1.10;;;;;;;34.57;33.23;97764.00;6228107;28;20719;-50
2022/07/04 13:55:57;;;;;;;1.23;1.13;;;;;;;34.57;34.25;97766.75;6227501;28;20235;-47
2022/07/04 13:59:00;;;;;;;1.20;1.10;;;;;;;34.36;33.19;97766.75;6228226;28;20235;-49
2022/07/04 14:02:02;;;;;;;2.05;1.05;;;;;;;34.69;32.57;97761.78;6227446;28;20742;-46
2022/07/04 14:05:05;;;;;;;2.78;1.35;;;;;;;35.62;30.71;97759.38;6227595;28;20719;-48
2022/07/04 14:08:07;;;;;;;1.70;1.60;;;;;;;36.63;28.99;97746.88;6226690;28;20231;-50
2022/07/04 14:11:10;;;;;;;1.65;1.50;;;;;;;37.99;27.17;97749.16;6227936;28;20727;-46
2022/07/04 14:14:12;;;;;;;1.70;1.60;;;;;;;38.07;26.36;97739.41;6228022;28;20235;-49
2022/07/04 14:17:14;;;;;;;1.70;1.35;;;;;;;39.70;24.75;97732.56;6211198;28;20253;-49
2022/07/04 14:20:36;;;;;;;1.60;1.50;;;;;;;38.89;24.87;97737.75;6227744;28;20220;-53
2022/07/04 14:23:41;;;;;;;1.77;1.45;;;;;;;37.21;26.81;97736.69;6227778;28;20719;-52
2022/07/04 14:26:43;;;;;;;1.80;1.60;;;;;;;36.26;29.38;97739.22;6226776;28;20632;-50
2022/07/04 14:29:46;;;;;;;1.40;1.30;;;;;;;35.46;30.96;97730.34;6226889;28;20711;-49
2022/07/04 14:32:48;;;;;;;0.80;0.80;;;;;;;34.75;33.31;97741.50;6227266;28;20223;-51
2022/07/04 14:35:50;;;;;;;2.03;1.20;;;;;;;34.29;34.48;97738.78;6228656;28;20281;-51
2022/07/04 14:38:52;;;;;;;1.60;1.27;;;;;;;33.93;35.41;97734.38;6227133;28;20741;-50
2022/07/04 14:41:54;;;;;;;1.58;0.90;;;;;;;33.55;36.28;97733.69;6227386;28;20581;-49
2022/07/04 14:44:56;;;;;;;1.40;1.30;;;;;;;33.27;36.99;97734.97;6230803;28;20289;-51
2022/07/04 14:47:58;;;;;;;1.88;1.50;;;;;;;33.03;37.24;97727.44;6231246;28;20695;-50
2022/07/04 14:51:00;;;;;;;1.60;1.50;;;;;;;32.82;37.78;97734.72;6214237;28;20242;-49
2022/07/04 14:54:03;;;;;;;1.40;1.30;;;;;;;32.46;36.42;97734.41;6212364;28;20620;-48
2022/07/04 14:57:07;;;;;;;2.38;1.50;;;;;;;32.30;36.06;97737.31;6231725;28;20204;-51
2022/07/04 15:00:09;;;;;;;1.60;1.48;;;;;;;32.02;36.56;97735.66;6231392;28;20216;-49